Time;durP1;ratioP1;P1;durP2;ratioP2;P2;SDS_P1;SDS_P2;PMS_P1;PMS_P2;Temp;Humidity;BMP_temperature;BMP_pressure;BME280_temperature;BME280_humidity;BME280_pressure;Samples;Min_cycle;Max_cycle;Signal;HPM_P1;HPM_P2
2021/12/10 00:01:43;;;;;;;;;;;23.00;44.50;;;;;;5035259;28;20277;-61
2021/12/10 00:04:09;;;;;;;;;;;23.00;44.50;;;;;;5035327;28;19966;-61
2021/12/10 00:06:37;;;;;;;;;;;23.00;44.50;;;;;;5035298;28;19919;-62
2021/12/10 00:09:05;;;;;;;;;;;23.00;44.50;;;;;;5035181;28;19909;-61
2021/12/10 00:11:34;;;;;;;;;;;23.00;44.50;;;;;;5035295;28;20007;-61
2021/12/10 00:14:00;;;;;;;;;;;22.90;44.40;;;;;;5034591;28;19909;-61
2021/12/10 00:16:26;;;;;;;;;;;22.90;44.40;;;;;;5035107;28;19915;-61
2021/12/10 00:18:57;;;;;;;;;;;22.90;44.40;;;;;;5034831;28;19925;-61
2021/12/10 00:21:24;;;;;;;;;;;22.90;44.40;;;;;;5034941;28;20366;-61
2021/12/10 00:23:51;;;;;;;;;;;22.90;44.40;;;;;;5034781;28;19963;-61
2021/12/10 00:26:20;;;;;;;;;;;22.90;44.40;;;;;;5034961;28;19916;-61
2021/12/10 00:28:47;;;;;;;;;;;22.90;44.40;;;;;;5034370;28;19975;-61
2021/12/10 00:34:13;;;;;;;;;;;22.80;44.30;;;;;;5017388;28;19913;-61
2021/12/10 00:36:38;;;;;;;;;;;22.90;44.40;;;;;;5035003;28;19919;-62
2021/12/10 00:39:06;;;;;;;;;;;22.80;44.40;;;;;;5034692;28;20358;-61
2021/12/10 00:41:32;;;;;;;;;;;22.80;44.40;;;;;;5034636;28;19921;-62
2021/12/10 00:43:57;;;;;;;;;;;22.80;44.40;;;;;;5034072;28;19917;-62
2021/12/10 00:46:23;;;;;;;;;;;22.80;44.40;;;;;;5034627;28;19909;-62
2021/12/10 00:48:48;;;;;;;;;;;22.80;44.40;;;;;;5034574;28;19947;-59
2021/12/10 00:51:13;;;;;;;;;;;22.80;44.50;;;;;;5034494;28;19917;-60
2021/12/10 00:53:41;;;;;;;;;;;22.80;44.50;;;;;;5034634;28;19920;-59
2021/12/10 00:56:06;;;;;;;;;;;22.80;44.50;;;;;;5034402;28;19913;-62
2021/12/10 00:58:32;;;;;;;;;;;22.80;44.50;;;;;;5033779;28;19920;-63
2021/12/10 01:00:59;;;;;;;;;;;22.80;44.50;;;;;;5033576;28;20382;-63
2021/12/10 01:03:27;;;;;;;;;;;22.80;44.50;;;;;;5016264;28;20426;-64
2021/12/10 01:05:54;;;;;;;;;;;22.80;44.50;;;;;;5034290;28;20380;-62
2021/12/10 01:08:19;;;;;;;;;;;22.80;44.50;;;;;;5034210;28;19913;-63
2021/12/10 01:10:48;;;;;;;;;;;22.70;44.50;;;;;;5034152;28;20269;-62
2021/12/10 01:13:18;;;;;;;;;;;22.70;44.50;;;;;;5033508;28;19910;-63
2021/12/10 01:16:08;;;;;;;;;;;22.70;44.50;;;;;;5033984;28;19971;-63
2021/12/10 01:27:10;;;;;;;;;;;22.70;44.50;;;;;;5009922;28;20394;-63
2021/12/10 01:29:37;;;;;;;;;;;22.70;44.50;;;;;;5033852;28;19909;-63
2021/12/10 01:32:04;;;;;;;;;;;22.60;44.40;;;;;;5033647;28;20273;-62
2021/12/10 01:34:30;;;;;;;;;;;22.60;44.40;;;;;;5033467;28;19909;-63
2021/12/10 01:36:55;;;;;;;;;;;22.60;44.40;;;;;;5033640;28;19920;-63
2021/12/10 01:39:23;;;;;;;;;;;22.60;44.40;;;;;;5033685;28;20358;-62
2021/12/10 01:42:00;;;;;;;;;;;22.60;44.40;;;;;;5032863;28;19968;-63
2021/12/10 01:44:32;;;;;;;;;;;22.60;44.40;;;;;;5033499;28;19999;-63
2021/12/10 01:46:59;;;;;;;;;;;22.50;44.30;;;;;;5033371;28;19991;-63
2021/12/10 01:49:24;;;;;;;;;;;22.50;44.30;;;;;;5033288;28;19909;-63
2021/12/10 01:51:50;;;;;;;;;;;22.50;44.30;;;;;;5033360;28;19959;-63
2021/12/10 01:54:21;;;;;;;;;;;22.50;44.40;;;;;;5033264;28;19913;-63
2021/12/10 01:56:47;;;;;;;;;;;22.50;44.30;;;;;;5032746;28;20008;-63
2021/12/10 01:59:15;;;;;;;;;;;22.50;44.30;;;;;;5033136;28;20365;-63
2021/12/10 02:01:43;;;;;;;;;;;22.50;44.30;;;;;;5033301;28;19921;-63
2021/12/10 02:04:10;;;;;;;;;;;22.40;44.30;;;;;;5033161;28;19909;-63
2021/12/10 02:06:36;;;;;;;;;;;22.40;44.30;;;;;;5032997;28;20416;-64
2021/12/10 02:09:03;;;;;;;;;;;22.40;44.20;;;;;;5033131;28;19917;-63
2021/12/10 02:11:28;;;;;;;;;;;22.40;44.30;;;;;;5032435;28;19917;-63
2021/12/10 02:13:53;;;;;;;;;;;22.40;44.20;;;;;;5032736;28;20004;-63
2021/12/10 02:16:19;;;;;;;;;;;22.40;44.30;;;;;;5032814;28;20054;-64
2021/12/10 02:18:45;;;;;;;;;;;22.40;44.30;;;;;;5032612;28;20048;-63
2021/12/10 02:21:10;;;;;;;;;;;22.40;44.30;;;;;;5032758;28;19913;-63
2021/12/10 02:23:37;;;;;;;;;;;22.30;44.20;;;;;;5032740;28;20385;-62
2021/12/10 02:26:04;;;;;;;;;;;22.30;44.20;;;;;;5032497;28;20262;-63
2021/12/10 02:28:30;;;;;;;;;;;22.30;44.20;;;;;;5032560;28;19929;-64
2021/12/10 02:30:56;;;;;;;;;;;22.30;44.20;;;;;;5014834;28;19909;-63
2021/12/10 02:33:22;;;;;;;;;;;22.30;44.20;;;;;;5032489;28;20012;-63
2021/12/10 02:35:48;;;;;;;;;;;22.30;44.20;;;;;;5032514;28;19945;-63
2021/12/10 02:38:16;;;;;;;;;;;22.20;44.20;;;;;;5032431;28;19944;-63
2021/12/10 02:40:43;;;;;;;;;;;22.30;44.20;;;;;;5031871;28;19967;-63
2021/12/10 02:43:10;;;;;;;;;;;22.20;44.20;;;;;;5032298;28;19921;-63
2021/12/10 02:45:36;;;;;;;;;;;22.20;44.20;;;;;;5032409;28;19910;-63
2021/12/10 02:48:01;;;;;;;;;;;22.20;44.20;;;;;;5014655;28;19913;-61
2021/12/10 02:50:28;;;;;;;;;;;22.20;44.20;;;;;;5014562;28;19913;-63
2021/12/10 02:52:54;;;;;;;;;;;22.20;44.20;;;;;;5032474;28;19936;-63
2021/12/10 02:55:20;;;;;;;;;;;22.20;44.20;;;;;;5031727;28;20361;-63
2021/12/10 02:57:48;;;;;;;;;;;22.10;44.20;;;;;;5032152;28;19909;-63
2021/12/10 03:00:15;;;;;;;;;;;22.10;44.10;;;;;;5032375;28;19917;-64
2021/12/10 03:02:40;;;;;;;;;;;22.10;44.10;;;;;;5031994;28;19917;-63
2021/12/10 03:05:07;;;;;;;;;;;22.10;44.10;;;;;;5032064;28;19915;-63
2021/12/10 03:07:33;;;;;;;;;;;22.10;44.10;;;;;;5032021;28;19917;-63
2021/12/10 03:09:59;;;;;;;;;;;22.10;44.10;;;;;;5031615;28;20384;-63
2021/12/10 03:12:24;;;;;;;;;;;22.10;44.10;;;;;;5031938;28;20416;-63
2021/12/10 03:14:52;;;;;;;;;;;22.10;44.20;;;;;;5031939;28;19913;-63
2021/12/10 03:17:20;;;;;;;;;;;22.10;44.10;;;;;;5032036;28;19909;-64
2021/12/10 03:19:46;;;;;;;;;;;22.00;44.10;;;;;;5031776;28;19921;-62
2021/12/10 03:22:11;;;;;;;;;;;22.00;44.10;;;;;;5031389;28;20464;-64
2021/12/10 03:24:37;;;;;;;;;;;22.00;44.10;;;;;;5031345;28;19909;-63
2021/12/10 03:27:05;;;;;;;;;;;22.00;44.10;;;;;;5032198;28;19959;-64
2021/12/10 03:29:31;;;;;;;;;;;22.00;44.10;;;;;;5031807;28;20365;-63
2021/12/10 03:31:58;;;;;;;;;;;22.00;44.10;;;;;;5031782;28;19916;-63
2021/12/10 03:34:23;;;;;;;;;;;21.90;44.10;;;;;;5031750;28;19917;-63
2021/12/10 03:36:51;;;;;;;;;;;22.00;44.10;;;;;;5031215;28;19916;-63
2021/12/10 03:39:17;;;;;;;;;;;22.00;44.10;;;;;;5031699;28;19920;-63
2021/12/10 03:41:43;;;;;;;;;;;22.00;44.10;;;;;;5031418;28;19974;-64
2021/12/10 03:44:09;;;;;;;;;;;21.90;44.10;;;;;;5031683;28;20412;-63
2021/12/10 03:46:35;;;;;;;;;;;21.90;44.10;;;;;;5013865;28;20000;-63
2021/12/10 03:49:03;;;;;;;;;;;21.90;44.10;;;;;;5031593;28;19909;-63
2021/12/10 03:51:29;;;;;;;;;;;21.90;44.00;;;;;;5031026;28;20392;-63
2021/12/10 03:53:55;;;;;;;;;;;21.80;44.00;;;;;;5031471;28;19919;-64
2021/12/10 03:56:22;;;;;;;;;;;21.90;44.10;;;;;;5031560;28;19913;-64
2021/12/10 03:58:48;;;;;;;;;;;21.90;44.00;;;;;;5031653;28;19963;-63
2021/12/10 04:01:15;;;;;;;;;;;21.80;44.00;;;;;;5031427;28;19919;-63
2021/12/10 04:03:44;;;;;;;;;;;21.80;44.00;;;;;;5031478;28;19913;-63
2021/12/10 04:06:10;;;;;;;;;;;21.80;44.00;;;;;;5030983;28;19913;-63
2021/12/10 04:08:36;;;;;;;;;;;21.80;44.00;;;;;;5031461;28;19959;-62
2021/12/10 04:11:03;;;;;;;;;;;21.80;44.00;;;;;;5031394;28;19967;-63
2021/12/10 04:13:28;;;;;;;;;;;21.80;44.00;;;;;;5031490;28;19921;-63
2021/12/10 04:15:54;;;;;;;;;;;21.80;44.00;;;;;;5031265;28;19910;-63
2021/12/10 04:18:20;;;;;;;;;;;21.70;44.00;;;;;;5031189;28;20370;-63
2021/12/10 04:20:46;;;;;;;;;;;21.70;44.00;;;;;;5030788;28;19913;-64
2021/12/10 04:23:14;;;;;;;;;;;21.70;44.00;;;;;;5031281;28;20018;-64
2021/12/10 04:25:41;;;;;;;;;;;21.70;44.00;;;;;;5031306;28;20365;-64
2021/12/10 04:28:08;;;;;;;;;;;21.70;44.00;;;;;;5031245;28;20405;-64
2021/12/10 04:30:39;;;;;;;;;;;21.70;44.00;;;;;;5031250;28;19913;-63
2021/12/10 04:33:06;;;;;;;;;;;21.70;44.00;;;;;;5031208;28;20370;-63
2021/12/10 04:35:31;;;;;;;;;;;21.70;44.00;;;;;;5030646;28;19909;-63
2021/12/10 04:37:57;;;;;;;;;;;21.70;44.00;;;;;;5033713;28;20377;-64
2021/12/10 04:40:23;;;;;;;;;;;21.60;43.90;;;;;;5034944;28;19917;-63
2021/12/10 04:42:48;;;;;;;;;;;21.60;44.00;;;;;;5034570;28;19999;-64
2021/12/10 04:45:16;;;;;;;;;;;21.60;43.90;;;;;;5034541;28;19909;-64
2021/12/10 04:47:42;;;;;;;;;;;21.60;43.90;;;;;;5034555;28;19909;-63
2021/12/10 04:50:09;;;;;;;;;;;21.60;44.00;;;;;;5016229;28;19921;-63
2021/12/10 04:52:34;;;;;;;;;;;21.60;43.90;;;;;;5034523;28;19913;-63
2021/12/10 04:55:00;;;;;;;;;;;21.60;44.00;;;;;;5034459;28;20292;-63
2021/12/10 04:57:26;;;;;;;;;;;21.60;43.90;;;;;;5034447;28;19916;-64
2021/12/10 04:59:51;;;;;;;;;;;21.60;44.00;;;;;;5034394;28;19913;-63
2021/12/10 05:02:17;;;;;;;;;;;21.60;43.90;;;;;;5034248;28;19917;-63
2021/12/10 05:04:43;;;;;;;;;;;21.60;44.00;;;;;;5033669;28;20389;-63
2021/12/10 05:07:11;;;;;;;;;;;21.60;43.90;;;;;;5034207;28;20365;-63
2021/12/10 05:09:36;;;;;;;;;;;21.50;43.90;;;;;;5034217;28;20352;-63
2021/12/10 05:12:02;;;;;;;;;;;21.50;43.90;;;;;;5034101;28;20379;-63
2021/12/10 05:14:30;;;;;;;;;;;21.50;43.90;;;;;;5034042;28;19959;-63
2021/12/10 05:16:58;;;;;;;;;;;21.50;43.90;;;;;;5033937;28;20416;-63
2021/12/10 05:19:26;;;;;;;;;;;21.50;43.90;;;;;;5033230;28;19921;-64
2021/12/10 05:21:52;;;;;;;;;;;21.50;43.90;;;;;;5033884;28;19942;-64
2021/12/10 05:24:18;;;;;;;;;;;21.50;43.90;;;;;;5033946;28;19920;-63
2021/12/10 05:26:44;;;;;;;;;;;21.50;44.00;;;;;;5033845;28;20373;-63
2021/12/10 05:29:09;;;;;;;;;;;21.50;43.90;;;;;;5033764;28;19909;-63
2021/12/10 05:31:36;;;;;;;;;;;21.40;43.90;;;;;;5016298;28;20419;-63
2021/12/10 05:34:02;;;;;;;;;;;21.40;43.90;;;;;;5033100;28;19909;-63
2021/12/10 05:36:28;;;;;;;;;;;21.40;43.90;;;;;;5015854;28;19913;-63
2021/12/10 05:38:53;;;;;;;;;;;21.40;43.90;;;;;;5033693;28;19916;-63
2021/12/10 05:41:19;;;;;;;;;;;21.40;43.90;;;;;;5033476;28;19975;-63
2021/12/10 05:43:44;;;;;;;;;;;21.40;43.80;;;;;;5033704;28;20400;-62
2021/12/10 05:46:12;;;;;;;;;;;21.40;43.90;;;;;;5033462;28;20423;-63
2021/12/10 05:48:38;;;;;;;;;;;21.40;43.90;;;;;;5032442;28;19939;-63
2021/12/10 05:51:03;;;;;;;;;;;21.40;43.80;;;;;;5033298;28;19913;-63
2021/12/10 05:53:29;;;;;;;;;;;21.40;43.80;;;;;;5033386;28;20064;-63
2021/12/10 05:55:54;;;;;;;;;;;21.40;43.80;;;;;;5033332;28;19956;-63
2021/12/10 05:58:21;;;;;;;;;;;21.40;43.80;;;;;;5033203;28;19976;-62
2021/12/10 06:01:00;;;;;;;;;;;21.40;43.80;;;;;;5033141;28;19909;-63
2021/12/10 06:03:26;;;;;;;;;;;21.40;43.70;;;;;;5032650;28;19996;-63
2021/12/10 06:05:52;;;;;;;;;;;21.40;43.70;;;;;;5033085;28;19952;-64
2021/12/10 06:08:17;;;;;;;;;;;21.40;43.70;;;;;;5033024;28;20265;-65
2021/12/10 06:10:44;;;;;;;;;;;21.40;43.70;;;;;;5033047;28;19917;-62
2021/12/10 06:13:09;;;;;;;;;;;21.40;43.70;;;;;;5033022;28;20003;-63
2021/12/10 06:15:35;;;;;;;;;;;21.40;43.70;;;;;;5032887;28;19978;-63
2021/12/10 06:18:01;;;;;;;;;;;21.40;43.70;;;;;;5032309;28;19913;-62
2021/12/10 06:20:29;;;;;;;;;;;21.40;43.70;;;;;;5033093;28;19917;-63
2021/12/10 06:22:55;;;;;;;;;;;21.40;43.70;;;;;;5032729;28;19917;-62
2021/12/10 06:25:21;;;;;;;;;;;21.50;43.70;;;;;;5032793;28;19959;-62
2021/12/10 06:27:47;;;;;;;;;;;21.50;43.70;;;;;;5032812;28;19914;-63
2021/12/10 06:30:14;;;;;;;;;;;21.50;43.70;;;;;;5032735;28;19920;-62
2021/12/10 06:32:41;;;;;;;;;;;21.50;43.70;;;;;;5032112;28;20365;-63
2021/12/10 06:35:06;;;;;;;;;;;21.50;43.70;;;;;;5032624;28;19918;-63
2021/12/10 06:37:32;;;;;;;;;;;21.50;43.70;;;;;;5032430;28;20000;-62
2021/12/10 06:39:57;;;;;;;;;;;21.50;43.70;;;;;;5032547;28;19914;-62
2021/12/10 06:42:23;;;;;;;;;;;21.60;43.70;;;;;;5014584;28;19921;-63
2021/12/10 06:44:48;;;;;;;;;;;21.60;43.70;;;;;;5032385;28;19909;-62
2021/12/10 06:47:14;;;;;;;;;;;21.60;43.70;;;;;;5032025;28;20366;-63
2021/12/10 06:49:39;;;;;;;;;;;21.60;43.80;;;;;;5032452;28;20393;-63
2021/12/10 06:52:05;;;;;;;;;;;21.60;43.70;;;;;;5032299;28;19909;-60
2021/12/10 06:54:30;;;;;;;;;;;21.60;43.60;;;;;;5032223;28;19996;-62
2021/12/10 06:56:56;;;;;;;;;;;21.60;43.60;;;;;;5032201;28;19909;-62
2021/12/10 06:59:24;;;;;;;;;;;21.70;43.70;;;;;;5031349;28;20040;-63
2021/12/10 07:01:50;;;;;;;;;;;21.60;43.60;;;;;;5031563;28;19917;-61
2021/12/10 07:04:15;;;;;;;;;;;21.70;43.60;;;;;;5032080;28;19959;-61
2021/12/10 07:06:42;;;;;;;;;;;21.70;43.70;;;;;;5032091;28;19913;-61
2021/12/10 07:09:11;;;;;;;;;;;21.60;43.60;;;;;;5032204;28;19978;-66
2021/12/10 07:11:37;;;;;;;;;;;21.70;43.70;;;;;;5031968;28;20317;-65
2021/12/10 07:14:03;;;;;;;;;;;21.70;43.60;;;;;;5032042;28;19917;-63
2021/12/10 07:16:29;;;;;;;;;;;21.70;43.70;;;;;;5013782;28;19943;-63
2021/12/10 07:18:55;;;;;;;;;;;21.70;43.60;;;;;;5031917;28;19921;-61
2021/12/10 07:21:21;;;;;;;;;;;21.80;43.70;;;;;;5031745;28;19917;-61
2021/12/10 07:23:46;;;;;;;;;;;21.80;43.70;;;;;;5014263;28;20047;-61
2021/12/10 07:26:13;;;;;;;;;;;21.80;43.70;;;;;;5031893;28;20331;-60
2021/12/10 07:28:39;;;;;;;;;;;21.80;43.70;;;;;;5031186;28;19920;-59
2021/12/10 07:31:05;;;;;;;;;;;21.80;43.70;;;;;;5031947;28;19910;-63
2021/12/10 07:33:30;;;;;;;;;;;21.90;43.80;;;;;;5031786;28;19909;-63
2021/12/10 07:35:56;;;;;;;;;;;21.90;43.70;;;;;;5014004;28;19914;-61
2021/12/10 07:38:22;;;;;;;;;;;22.00;43.80;;;;;;5013990;28;19909;-63
2021/12/10 07:40:47;;;;;;;;;;;22.00;43.80;;;;;;5031713;28;19920;-65
2021/12/10 07:43:13;;;;;;;;;;;21.90;43.80;;;;;;5031034;28;19924;-64
2021/12/10 07:45:40;;;;;;;;;;;22.00;43.90;;;;;;5031597;28;19932;-62
2021/12/10 07:48:08;;;;;;;;;;;22.00;43.80;;;;;;5031856;28;19909;-63
2021/12/10 07:50:35;;;;;;;;;;;22.00;43.80;;;;;;5031604;28;19959;-64
2021/12/10 07:53:01;;;;;;;;;;;22.00;43.90;;;;;;5031581;28;19909;-67
2021/12/10 07:55:29;;;;;;;;;;;22.00;43.90;;;;;;5031593;28;19921;-65
2021/12/10 07:57:54;;;;;;;;;;;22.10;44.00;;;;;;5030984;28;19994;-66
2021/12/10 08:00:21;;;;;;;;;;;22.10;44.00;;;;;;5031728;28;19909;-62
2021/12/10 08:02:47;;;;;;;;;;;22.10;44.70;;;;;;5031551;28;19979;-64
2021/12/10 08:05:13;;;;;;;;;;;22.10;44.10;;;;;;5031476;28;19920;-63
2021/12/10 08:07:39;;;;;;;;;;;22.10;44.10;;;;;;5031495;28;19971;-63
2021/12/10 08:10:05;;;;;;;;;;;22.20;44.10;;;;;;5031462;28;19995;-63
2021/12/10 08:12:31;;;;;;;;;;;22.20;44.20;;;;;;5034549;28;19924;-63
2021/12/10 08:14:59;;;;;;;;;;;22.20;44.20;;;;;;5017443;28;19909;-58
2021/12/10 08:17:25;;;;;;;;;;;22.30;44.20;;;;;;5035022;28;19909;-65
2021/12/10 08:19:51;;;;;;;;;;;22.30;44.20;;;;;;5035114;28;20465;-62
2021/12/10 08:22:17;;;;;;;;;;;22.30;44.30;;;;;;5049684;28;19921;-65
2021/12/10 08:24:43;;;;;;;;;;;22.30;44.30;;;;;;5069363;28;19990;-68
2021/12/10 08:27:09;;;;;;;;;;;22.30;44.30;;;;;;5067501;28;20387;-67
2021/12/10 08:29:34;;;;;;;;;;;22.40;44.40;;;;;;5054844;28;19923;-62
2021/12/10 08:32:02;;;;;;;;;;;22.40;44.40;;;;;;5053609;28;19909;-62
2021/12/10 08:34:28;;;;;;;;;;;22.40;44.40;;;;;;5070423;28;19913;-64
2021/12/10 08:36:53;;;;;;;;;;;22.40;44.40;;;;;;5054201;28;19916;-62
2021/12/10 08:39:19;;;;;;;;;;;22.40;44.40;;;;;;5031844;28;19955;-62
2021/12/10 08:41:44;;;;;;;;;;;22.50;44.40;;;;;;5053599;28;19961;-62
2021/12/10 08:44:10;;;;;;;;;;;22.50;44.40;;;;;;5053756;28;19909;-62
2021/12/10 08:46:37;;;;;;;;;;;22.50;44.50;;;;;;5051902;28;20100;-63
2021/12/10 08:49:03;;;;;;;;;;;22.50;44.50;;;;;;5038960;28;20011;-63
2021/12/10 08:51:36;;;;;;;;;;;22.50;44.50;;;;;;5069262;28;19908;-64
2021/12/10 08:54:01;;;;;;;;;;;22.50;44.50;;;;;;5053599;28;20708;-65
2021/12/10 08:56:28;;;;;;;;;;;22.50;44.50;;;;;;5053714;28;20031;-62
2021/12/10 08:58:53;;;;;;;;;;;22.50;44.50;;;;;;5053721;28;19916;-62
2021/12/10 09:01:21;;;;;;;;;;;22.60;44.50;;;;;;5053071;28;20284;-63
2021/12/10 09:03:54;;;;;;;;;;;22.60;44.50;;;;;;5053231;28;19912;-63
2021/12/10 09:06:21;;;;;;;;;;;22.60;44.50;;;;;;5052659;28;20327;-62
2021/12/10 09:08:46;;;;;;;;;;;22.60;44.50;;;;;;5053596;28;19935;-64
2021/12/10 09:11:13;;;;;;;;;;;22.60;44.50;;;;;;5053466;28;19983;-66
2021/12/10 09:13:39;;;;;;;;;;;22.60;44.50;;;;;;5053932;28;20341;-66
2021/12/10 09:16:07;;;;;;;;;;;22.60;44.50;;;;;;5053709;28;19919;-66
2021/12/10 09:18:33;;;;;;;;;;;22.60;44.50;;;;;;5053654;28;19924;-66
2021/12/10 09:21:00;;;;;;;;;;;22.60;44.50;;;;;;5053558;28;19935;-66
2021/12/10 09:23:27;;;;;;;;;;;22.60;45.10;;;;;;5052966;28;20365;-67
2021/12/10 09:25:55;;;;;;;;;;;22.60;44.50;;;;;;5035303;28;19912;-67
2021/12/10 09:28:20;;;;;;;;;;;22.60;44.50;;;;;;5053663;28;19995;-67
2021/12/10 09:30:48;;;;;;;;;;;22.60;44.50;;;;;;5053603;28;20396;-66
2021/12/10 09:33:13;;;;;;;;;;;22.60;44.50;;;;;;5053567;28;20073;-66
2021/12/10 09:35:39;;;;;;;;;;;22.60;44.50;;;;;;5054325;28;20019;-66
2021/12/10 09:38:05;;;;;;;;;;;22.60;44.40;;;;;;5073431;28;19920;-67
2021/12/10 09:40:33;;;;;;;;;;;22.60;44.40;;;;;;5073200;28;19908;-66
2021/12/10 09:43:00;;;;;;;;;;;22.60;44.40;;;;;;5073396;28;19927;-66
2021/12/10 09:45:27;;;;;;;;;;;22.60;44.40;;;;;;5068728;28;20548;-63
2021/12/10 09:47:52;;;;;;;;;;;22.60;44.40;;;;;;5053020;28;19947;-67
2021/12/10 09:50:19;;;;;;;;;;;22.60;44.40;;;;;;5053124;28;20258;-66
2021/12/10 09:52:44;;;;;;;;;;;22.60;44.40;;;;;;5052772;28;19913;-66
2021/12/10 09:55:11;;;;;;;;;;;22.70;44.40;;;;;;5034881;28;20003;-67
2021/12/10 09:57:37;;;;;;;;;;;22.70;44.40;;;;;;5053261;28;20429;-62
2021/12/10 10:00:26;;;;;;;;;;;22.70;44.40;;;;;;5034386;28;20339;-63
2021/12/10 10:02:52;;;;;;;;;;;22.70;44.40;;;;;;5013768;28;19921;-64
2021/12/10 10:05:18;;;;;;;;;;;22.70;44.40;;;;;;5050727;28;19915;-68
2021/12/10 10:07:51;;;;;;;;;;;22.70;44.40;;;;;;5050672;28;19924;-63
2021/12/10 10:10:16;;;;;;;;;;;22.70;44.50;;;;;;5049875;28;19920;-64
2021/12/10 10:12:43;;;;;;;;;;;22.70;44.40;;;;;;5050013;28;19916;-61
2021/12/10 10:15:11;;;;;;;;;;;22.70;44.40;;;;;;5050159;28;19917;-60
2021/12/10 10:17:37;;;;;;;;;;;22.70;44.40;;;;;;5049839;28;19908;-60
2021/12/10 10:20:04;;;;;;;;;;;22.70;44.40;;;;;;5050166;28;19921;-62
2021/12/10 10:22:29;;;;;;;;;;;22.70;44.40;;;;;;5050037;28;19925;-61
2021/12/10 10:24:55;;;;;;;;;;;22.70;44.40;;;;;;5049389;28;19912;-62
2021/12/10 10:27:23;;;;;;;;;;;22.70;44.40;;;;;;5031981;28;20280;-62
2021/12/10 10:29:52;;;;;;;;;;;22.80;44.40;;;;;;5050035;28;20357;-64
2021/12/10 10:32:20;;;;;;;;;;;22.80;44.40;;;;;;5050042;28;20288;-64
2021/12/10 10:34:50;;;;;;;;;;;22.80;44.40;;;;;;5049646;28;19916;-63
2021/12/10 10:37:16;;;;;;;;;;;22.80;44.40;;;;;;5046842;28;19913;-64
2021/12/10 10:39:43;;;;;;;;;;;22.90;44.40;;;;;;5046995;28;20413;-65
2021/12/10 10:42:12;;;;;;;;;;;22.80;44.40;;;;;;5050985;28;19917;-65
2021/12/10 10:44:38;;;;;;;;;;;22.90;44.40;;;;;;5052225;28;19913;-65
2021/12/10 10:47:04;;;;;;;;;;;22.90;44.40;;;;;;5051996;28;19978;-65
2021/12/10 10:49:40;;;;;;;;;;;22.90;44.40;;;;;;5050860;28;20031;-63
2021/12/10 10:52:17;;;;;;;;;;;22.90;44.40;;;;;;5051533;28;19913;-68
2021/12/10 10:54:43;;;;;;;;;;;22.90;44.50;;;;;;5052151;28;19912;-67
2021/12/10 10:57:14;;;;;;;;;;;22.90;44.40;;;;;;5052008;28;19916;-67
2021/12/10 10:59:40;;;;;;;;;;;22.90;44.40;;;;;;5051686;28;19913;-66
2021/12/10 11:02:08;;;;;;;;;;;22.80;44.30;;;;;;5052051;28;19917;-67
2021/12/10 11:04:39;;;;;;;;;;;22.80;44.30;;;;;;5051810;28;19919;-69
2021/12/10 11:07:09;;;;;;;;;;;22.80;44.30;;;;;;5050802;28;22308;-68
2021/12/10 11:09:41;;;;;;;;;;;22.80;44.30;;;;;;5051954;28;19908;-69
2021/12/10 11:12:08;;;;;;;;;;;22.80;44.30;;;;;;5051570;28;19908;-67
2021/12/10 11:14:38;;;;;;;;;;;22.80;44.30;;;;;;5051937;28;20352;-67
2021/12/10 11:17:09;;;;;;;;;;;22.80;44.30;;;;;;5051819;28;19919;-67
2021/12/10 11:19:34;;;;;;;;;;;22.80;44.30;;;;;;5033750;28;20020;-68
2021/12/10 11:22:02;;;;;;;;;;;22.80;44.30;;;;;;5051687;28;19928;-69
2021/12/10 11:24:37;;;;;;;;;;;22.80;44.30;;;;;;5052138;28;19932;-69
2021/12/10 11:27:08;;;;;;;;;;;22.80;44.30;;;;;;5051785;28;19958;-68
2021/12/10 11:29:37;;;;;;;;;;;22.80;44.30;;;;;;5034008;28;19916;-71
2021/12/10 11:32:07;;;;;;;;;;;22.80;44.30;;;;;;5051813;28;19920;-67
2021/12/10 11:34:38;;;;;;;;;;;22.80;44.30;;;;;;5051572;28;20506;-67
2021/12/10 11:37:04;;;;;;;;;;;22.80;44.20;;;;;;5050550;28;19913;-66
2021/12/10 11:39:43;;;;;;;;;;;22.80;44.20;;;;;;5051052;28;20388;-66
2021/12/10 11:42:27;;;;;;;;;;;22.70;44.20;;;;;;5033733;28;19917;-68
2021/12/10 11:45:16;;;;;;;;;;;22.70;44.10;;;;;;5051521;28;20444;-67
2021/12/10 11:47:42;;;;;;;;;;;22.70;44.20;;;;;;5055538;28;20366;-65
2021/12/10 11:50:16;;;;;;;;;;;22.70;44.20;;;;;;5055430;28;19919;-67
2021/12/10 11:52:41;;;;;;;;;;;22.70;44.20;;;;;;5055670;28;19908;-69
2021/12/10 11:55:09;;;;;;;;;;;22.70;44.20;;;;;;5064447;28;20402;-69
2021/12/10 11:57:36;;;;;;;;;;;22.70;44.20;;;;;;5074953;28;20026;-69
2021/12/10 12:00:15;;;;;;;;;;;22.60;44.20;;;;;;5075512;28;19909;-63
2021/12/10 12:02:48;;;;;;;;;;;22.60;44.10;;;;;;5075371;28;20023;-63
2021/12/10 12:05:15;;;;;;;;;;;22.60;44.10;;;;;;5074889;28;19909;-63
2021/12/10 12:07:45;;;;;;;;;;;22.50;44.20;;;;;;5075236;28;20424;-63
2021/12/10 12:10:20;;;;;;;;;;;22.50;44.30;;;;;;5061158;28;19932;-63
2021/12/10 12:12:59;;;;;;;;;;;22.50;44.30;;;;;;5055266;28;20467;-63
2021/12/10 12:15:24;;;;;;;;;;;22.50;44.40;;;;;;5055212;28;20051;-64
2021/12/10 12:17:51;;;;;;;;;;;22.50;44.30;;;;;;5054865;28;19970;-61
2021/12/10 12:20:37;;;;;;;;;;;22.50;44.40;;;;;;5054468;28;19944;-62
2021/12/10 12:26:08;;;;;;;;;;;22.40;44.30;;;;;;5055111;28;19916;-63
2021/12/10 12:28:36;;;;;;;;;;;22.50;44.30;;;;;;5054778;28;19943;-63
2021/12/10 12:31:09;;;;;;;;;;;22.40;44.20;;;;;;5054754;28;19930;-63
2021/12/10 12:33:58;;;;;;;;;;;22.40;44.20;;;;;;5054085;28;19923;-63
2021/12/10 12:36:46;;;;;;;;;;;22.40;44.20;;;;;;5054520;28;20377;-63
2021/12/10 12:39:14;;;;;;;;;;;22.40;44.20;;;;;;5034478;28;19909;-63
2021/12/10 12:41:41;;;;;;;;;;;22.40;44.20;;;;;;5054068;28;20277;-63
2021/12/10 12:44:19;;;;;;;;;;;22.40;44.20;;;;;;5053942;28;20045;-63
2021/12/10 12:47:08;;;;;;;;;;;22.40;44.20;;;;;;5052741;28;20326;-63
2021/12/10 12:49:37;;;;;;;;;;;22.40;44.20;;;;;;5036055;28;20366;-63
2021/12/10 12:52:04;;;;;;;;;;;22.40;44.20;;;;;;5054382;28;19913;-63
2021/12/10 12:54:30;;;;;;;;;;;22.40;44.20;;;;;;5054221;28;19916;-64
2021/12/10 12:56:56;;;;;;;;;;;22.40;44.20;;;;;;5053462;28;19908;-63
2021/12/10 12:59:21;;;;;;;;;;;22.40;44.20;;;;;;5053903;28;19909;-63
2021/12/10 13:01:50;;;;;;;;;;;22.40;44.20;;;;;;5054343;28;19972;-63
2021/12/10 13:04:21;;;;;;;;;;;22.40;44.20;;;;;;5053651;28;19912;-62
2021/12/10 13:06:48;;;;;;;;;;;22.40;44.10;;;;;;5054170;28;19917;-63
2021/12/10 13:09:20;;;;;;;;;;;22.40;44.10;;;;;;5060344;28;19908;-63
2021/12/10 13:12:05;;;;;;;;;;;22.50;44.20;;;;;;5053524;28;19955;-63
2021/12/10 13:14:37;;;;;;;;;;;22.50;44.20;;;;;;5053778;28;19908;-63
2021/12/10 13:17:14;;;;;;;;;;;22.50;44.20;;;;;;5033279;28;20369;-61
2021/12/10 13:19:40;;;;;;;;;;;22.50;44.20;;;;;;5053431;28;19928;-61
2021/12/10 13:22:11;;;;;;;;;;;22.50;44.20;;;;;;5035765;28;19921;-65
2021/12/10 13:24:38;;;;;;;;;;;22.50;44.20;;;;;;5053774;28;19909;-62
2021/12/10 13:27:04;;;;;;;;;;;22.50;44.10;;;;;;5035556;28;19909;-63
2021/12/10 13:29:30;;;;;;;;;;;22.50;44.10;;;;;;5053600;28;19954;-62
2021/12/10 13:31:56;;;;;;;;;;;22.50;44.10;;;;;;5053045;28;20320;-63
2021/12/10 13:34:22;;;;;;;;;;;22.50;44.10;;;;;;5053485;28;20096;-62
2021/12/10 13:36:47;;;;;;;;;;;22.50;44.10;;;;;;5054614;28;20042;-62
2021/12/10 13:39:13;;;;;;;;;;;22.50;44.10;;;;;;5053561;28;19956;-62
2021/12/10 13:41:39;;;;;;;;;;;22.50;44.10;;;;;;5062262;28;19919;-63
2021/12/10 13:46:58;;;;;;;;;;;22.50;44.10;;;;;;5073167;28;19909;-63
2021/12/10 13:49:24;;;;;;;;;;;22.50;44.10;;;;;;5065932;28;19920;-62
2021/12/10 13:51:52;;;;;;;;;;;22.50;44.10;;;;;;5053257;28;19909;-63
2021/12/10 13:54:22;;;;;;;;;;;22.50;44.10;;;;;;5032312;28;19908;-62
2021/12/10 13:56:55;;;;;;;;;;;22.50;44.10;;;;;;5052597;28;19956;-63
2021/12/10 13:59:24;;;;;;;;;;;22.50;44.10;;;;;;5053102;28;19995;-63
2021/12/10 14:01:50;;;;;;;;;;;22.50;44.10;;;;;;5052470;28;19916;-62
2021/12/10 14:04:18;;;;;;;;;;;22.50;44.00;;;;;;5051453;28;19963;-62
2021/12/10 14:06:51;;;;;;;;;;;22.50;44.10;;;;;;5052633;28;19935;-62
2021/12/10 14:09:20;;;;;;;;;;;22.50;44.10;;;;;;5052606;28;19986;-62
2021/12/10 14:12:07;;;;;;;;;;;22.60;44.10;;;;;;5052683;28;20225;-62
2021/12/10 14:14:35;;;;;;;;;;;22.60;44.10;;;;;;5045377;28;19908;-63
2021/12/10 14:17:03;;;;;;;;;;;22.60;44.10;;;;;;5052647;28;19962;-62
2021/12/10 14:19:28;;;;;;;;;;;22.60;44.10;;;;;;5052309;28;19920;-62
2021/12/10 14:21:53;;;;;;;;;;;22.60;44.10;;;;;;5034627;28;20452;-62
2021/12/10 14:24:33;;;;;;;;;;;22.60;44.10;;;;;;5052366;28;19913;-62
2021/12/10 14:27:09;;;;;;;;;;;22.60;44.10;;;;;;5052454;28;19916;-62
2021/12/10 14:29:35;;;;;;;;;;;22.60;44.10;;;;;;5058833;28;20399;-62
2021/12/10 14:32:00;;;;;;;;;;;22.60;44.10;;;;;;5053639;28;19909;-62
2021/12/10 14:34:26;;;;;;;;;;;22.60;44.10;;;;;;5052494;28;20396;-62
2021/12/10 14:36:57;;;;;;;;;;;22.60;44.10;;;;;;5052102;28;19959;-62